createdAt,value
2022-12-24T00:00:06.225Z,122.05
2022-12-24T00:02:34.813Z,127.15
2022-12-24T00:05:02.411Z,128.27
2022-12-24T00:07:30.385Z,123.38
2022-12-24T00:09:57.756Z,125.57
2022-12-24T00:12:25.217Z,126.63
2022-12-24T00:14:52.639Z,129.02
2022-12-24T00:17:20.143Z,134.93
2022-12-24T00:19:47.828Z,128.90
2022-12-24T00:22:15.349Z,122.45
2022-12-24T00:24:42.836Z,130.52
2022-12-24T00:27:10.304Z,135.40
2022-12-24T00:29:37.797Z,128.57
2022-12-24T00:32:08.121Z,130.55
2022-12-24T00:34:35.641Z,122.40
2022-12-24T00:37:03.009Z,129.52
2022-12-24T00:39:30.477Z,129.52
2022-12-24T00:41:57.884Z,134.10
2022-12-24T00:44:25.286Z,140.20
2022-12-24T00:46:52.792Z,135.75
2022-12-24T00:49:20.269Z,130.68
2022-12-24T00:51:47.682Z,138.00
2022-12-24T00:54:15.355Z,128.50
2022-12-24T00:56:42.753Z,127.95
2022-12-24T00:59:10.236Z,132.98
2022-12-24T01:01:37.758Z,128.55
2022-12-24T01:04:23.842Z,132.45
2022-12-24T01:06:51.378Z,128.23
2022-12-24T01:09:18.766Z,135.02
2022-12-24T01:11:46.414Z,130.32
2022-12-24T01:14:13.863Z,132.32
2022-12-24T01:16:41.409Z,131.43
2022-12-24T01:19:08.942Z,127.55
2022-12-24T01:21:36.371Z,133.38
2022-12-24T01:24:03.952Z,139.35
2022-12-24T01:26:31.422Z,136.93
2022-12-24T01:28:58.874Z,137.85
2022-12-24T01:31:26.666Z,130.57
2022-12-24T01:33:54.120Z,132.60
2022-12-24T01:36:21.630Z,126.63
2022-12-24T01:38:49.008Z,127.38
2022-12-24T01:41:36.491Z,130.50
2022-12-24T01:44:22.196Z,140.10
2022-12-24T01:46:52.593Z,151.68
2022-12-24T01:49:20.181Z,148.00
2022-12-24T01:51:49.810Z,148.65
2022-12-24T01:54:21.839Z,160.43
2022-12-24T01:56:51.631Z,156.80
2022-12-24T01:59:19.802Z,157.00
2022-12-24T02:01:48.078Z,155.80
2022-12-24T02:04:23.103Z,150.40
2022-12-24T02:06:50.533Z,159.10
2022-12-24T02:09:18.175Z,162.93
2022-12-24T02:11:45.921Z,178.05
2022-12-24T02:14:14.350Z,204.55
2022-12-24T02:16:46.864Z,317.52
2022-12-24T02:19:23.460Z,247.07
2022-12-24T02:21:57.143Z,254.82
2022-12-24T02:24:43.399Z,250.07
2022-12-24T02:27:22.806Z,218.25
2022-12-24T02:30:04.124Z,202.88
2022-12-24T02:32:31.674Z,193.40
2022-12-24T02:35:03.105Z,209.32
2022-12-24T02:37:43.534Z,199.85
2022-12-24T02:40:16.780Z,259.73
2022-12-24T02:42:46.640Z,249.18
2022-12-24T02:45:31.546Z,306.15
2022-12-24T02:47:59.852Z,289.50
2022-12-24T02:50:27.852Z,275.52
2022-12-24T02:52:55.364Z,239.05
2022-12-24T02:55:31.530Z,231.13
2022-12-24T02:58:11.091Z,198.73
2022-12-24T03:00:47.827Z,189.70
2022-12-24T03:03:33.604Z,208.02
2022-12-24T03:08:33.788Z,226.88
2022-12-24T03:11:10.636Z,214.30
2022-12-24T03:13:38.526Z,169.50
2022-12-24T03:16:08.080Z,141.68
2022-12-24T03:18:37.890Z,226.32
2022-12-24T03:21:25.540Z,218.02
2022-12-24T03:23:53.029Z,200.60
2022-12-24T03:26:20.984Z,196.32
2022-12-24T03:28:49.168Z,158.82
2022-12-24T03:31:17.223Z,149.82
2022-12-24T03:33:44.690Z,133.82
2022-12-24T03:36:12.418Z,160.27
2022-12-24T03:38:40.186Z,153.10
2022-12-24T03:41:08.909Z,174.63
2022-12-24T03:43:36.451Z,201.90
2022-12-24T03:46:07.538Z,200.40
2022-12-24T03:48:35.783Z,205.88
2022-12-24T03:51:03.623Z,205.23
2022-12-24T03:53:31.119Z,221.57
2022-12-24T03:55:58.494Z,210.38
2022-12-24T03:58:25.896Z,200.20
2022-12-24T04:00:54.353Z,210.52
2022-12-24T04:03:21.850Z,219.55
2022-12-24T04:05:49.320Z,176.43
2022-12-24T04:08:16.763Z,217.55
2022-12-24T04:10:44.135Z,218.15
2022-12-24T04:13:11.595Z,217.27
2022-12-24T04:15:38.951Z,215.68
2022-12-24T04:18:06.508Z,252.32
2022-12-24T04:20:33.895Z,205.13
2022-12-24T04:23:01.377Z,214.13
2022-12-24T04:25:28.739Z,200.25
2022-12-24T04:27:56.156Z,192.30
2022-12-24T04:30:23.531Z,188.65
2022-12-24T04:32:50.949Z,226.52
2022-12-24T04:35:18.355Z,201.85
2022-12-24T04:37:45.820Z,181.25
2022-12-24T04:40:13.288Z,159.85
2022-12-24T04:42:40.725Z,185.57
2022-12-24T04:45:08.448Z,174.38
2022-12-24T04:47:35.914Z,153.82
2022-12-24T04:50:03.359Z,163.85
2022-12-24T04:52:30.786Z,147.35
2022-12-24T04:54:58.156Z,192.90
2022-12-24T04:57:25.604Z,152.95
2022-12-24T04:59:53.024Z,152.80
2022-12-24T05:02:20.573Z,142.02
2022-12-24T05:04:48.092Z,138.68
2022-12-24T05:07:15.608Z,157.23
2022-12-24T05:09:43.036Z,138.38
2022-12-24T05:12:10.555Z,148.75
2022-12-24T05:14:38.062Z,215.13
2022-12-24T05:17:05.623Z,131.23
2022-12-24T05:19:33.422Z,157.55
2022-12-24T05:22:19.543Z,132.00
2022-12-24T05:25:05.404Z,126.95
2022-12-24T05:27:32.961Z,158.65
2022-12-24T05:30:00.468Z,182.55
2022-12-24T05:32:28.833Z,150.75
2022-12-24T05:34:56.284Z,194.65
2022-12-24T05:37:23.769Z,187.10
2022-12-24T05:39:51.208Z,193.57
2022-12-24T05:42:18.631Z,228.20
2022-12-24T05:44:46.019Z,208.48
2022-12-24T05:47:13.480Z,185.43
2022-12-24T05:49:40.859Z,135.70
2022-12-24T05:52:08.323Z,173.75
2022-12-24T05:54:35.718Z,160.02
2022-12-24T05:57:03.229Z,171.98
2022-12-24T05:59:30.614Z,139.30
2022-12-24T06:01:58.222Z,155.10
2022-12-24T06:04:28.974Z,126.90
2022-12-24T06:06:56.974Z,133.25
2022-12-24T06:09:24.386Z,160.85
2022-12-24T06:11:51.962Z,124.85
2022-12-24T06:14:19.359Z,121.22
2022-12-24T06:16:46.825Z,112.93
2022-12-24T06:19:14.225Z,114.47
2022-12-24T06:21:41.636Z,129.70
2022-12-24T06:24:09.141Z,98.32
2022-12-24T06:26:36.637Z,111.07
2022-12-24T06:29:03.994Z,107.10
2022-12-24T06:31:31.617Z,101.32
2022-12-24T06:33:59.129Z,100.13
2022-12-24T06:36:26.986Z,102.30
2022-12-24T06:38:55.522Z,111.63
2022-12-24T06:41:23.701Z,123.95
2022-12-24T06:43:51.788Z,119.22
2022-12-24T06:46:19.998Z,130.38
2022-12-24T06:48:48.071Z,134.65
2022-12-24T06:51:16.407Z,137.55
2022-12-24T06:53:43.844Z,144.35
2022-12-24T06:56:12.536Z,127.45
2022-12-24T06:58:40.777Z,131.90
2022-12-24T07:01:09.040Z,144.48
2022-12-24T07:03:36.750Z,127.03
2022-12-24T07:06:04.329Z,125.90
2022-12-24T07:08:36.466Z,143.32
2022-12-24T07:11:04.262Z,105.18
2022-12-24T07:13:33.175Z,103.70
2022-12-24T07:16:01.467Z,101.15
2022-12-24T07:18:29.441Z,107.57
2022-12-24T07:20:56.920Z,96.68
2022-12-24T07:23:24.362Z,108.10
2022-12-24T07:25:51.842Z,98.88
2022-12-24T07:28:25.486Z,101.22
2022-12-24T07:30:55.363Z,98.88
2022-12-24T07:33:22.933Z,97.30
2022-12-24T07:35:55.725Z,97.78
2022-12-24T07:38:23.464Z,94.03
2022-12-24T07:40:50.858Z,100.47
2022-12-24T07:43:18.329Z,100.95
2022-12-24T07:45:45.756Z,97.28
2022-12-24T07:48:13.253Z,94.18
2022-12-24T07:50:40.661Z,93.65
2022-12-24T07:53:08.137Z,95.00
2022-12-24T07:55:36.673Z,98.00
2022-12-24T07:58:04.190Z,96.50
2022-12-24T08:00:31.618Z,111.50
2022-12-24T08:03:00.272Z,100.82
2022-12-24T08:05:28.505Z,108.07
2022-12-24T08:07:56.256Z,102.30
2022-12-24T08:10:23.763Z,108.68
2022-12-24T08:12:51.256Z,104.93
2022-12-24T08:15:18.804Z,106.07
2022-12-24T08:17:46.324Z,103.43
2022-12-24T08:20:13.863Z,98.18
2022-12-24T08:22:41.306Z,98.95
2022-12-24T08:25:08.973Z,97.65
2022-12-24T08:27:36.470Z,99.53
2022-12-24T08:30:04.808Z,95.60
2022-12-24T08:32:32.512Z,92.15
2022-12-24T08:35:00.039Z,91.13
2022-12-24T08:37:27.438Z,92.90
2022-12-24T08:39:54.835Z,95.97
2022-12-24T08:42:22.275Z,95.55
2022-12-24T08:44:49.712Z,94.90
2022-12-24T08:47:17.159Z,100.45
2022-12-24T08:49:44.671Z,100.78
2022-12-24T08:52:12.201Z,94.20
2022-12-24T08:54:39.688Z,97.00
2022-12-24T08:57:07.873Z,104.65
2022-12-24T08:59:35.269Z,106.30
2022-12-24T09:02:02.997Z,100.25
2022-12-24T09:04:30.492Z,99.55
2022-12-24T09:06:57.886Z,104.50
2022-12-24T09:09:25.415Z,107.95
2022-12-24T09:11:53.307Z,100.68
2022-12-24T09:14:21.143Z,103.05
2022-12-24T09:16:48.708Z,102.13
2022-12-24T09:19:16.308Z,113.10
2022-12-24T09:21:43.767Z,108.85
2022-12-24T09:24:11.155Z,106.22
2022-12-24T09:26:38.833Z,102.97
2022-12-24T09:29:06.458Z,97.55
2022-12-24T09:31:34.180Z,98.88
2022-12-24T09:34:01.583Z,99.95
2022-12-24T09:36:29.005Z,100.10
2022-12-24T09:38:56.448Z,96.47
2022-12-24T09:41:23.897Z,107.40
2022-12-24T09:43:57.253Z,97.63
2022-12-24T09:46:31.523Z,104.32
2022-12-24T09:49:02.503Z,104.93
2022-12-24T09:51:35.067Z,101.72
2022-12-24T09:54:09.208Z,95.97
2022-12-24T09:56:45.119Z,90.28
2022-12-24T09:59:15.547Z,99.80
2022-12-24T10:01:43.827Z,101.32
2022-12-24T10:04:15.873Z,97.40
2022-12-24T10:07:03.260Z,90.47
2022-12-24T10:09:49.201Z,94.97
2022-12-24T10:12:22.383Z,97.90
2022-12-24T10:14:52.870Z,93.47
2022-12-24T10:17:32.744Z,102.35
2022-12-24T10:20:09.141Z,91.82
2022-12-24T10:22:39.659Z,95.22
2022-12-24T10:25:13.413Z,99.97
2022-12-24T10:27:41.092Z,90.40
2022-12-24T10:30:20.596Z,90.38
2022-12-24T10:32:48.948Z,91.35
2022-12-24T10:35:16.339Z,91.75
2022-12-24T10:37:46.311Z,92.53
2022-12-24T10:40:29.200Z,95.28
2022-12-24T10:42:56.953Z,86.85
2022-12-24T10:45:26.825Z,90.20
2022-12-24T10:47:56.321Z,85.85
2022-12-24T10:50:36.579Z,83.07
2022-12-24T10:53:15.690Z,87.80
2022-12-24T10:55:43.420Z,90.05
2022-12-24T10:58:16.596Z,94.43
2022-12-24T11:00:50.421Z,86.85
2022-12-24T11:03:34.931Z,78.03
2022-12-24T11:06:02.411Z,74.78
2022-12-24T11:08:29.919Z,77.55
2022-12-24T11:11:05.460Z,78.30
2022-12-24T11:13:53.234Z,80.95
2022-12-24T11:16:37.478Z,74.70
2022-12-24T11:19:06.178Z,81.93
2022-12-24T11:21:35.400Z,85.07
2022-12-24T11:24:26.075Z,88.78
2022-12-24T11:26:53.588Z,85.90
2022-12-24T11:29:24.987Z,91.40
2022-12-24T11:31:53.181Z,89.82
2022-12-24T11:34:28.382Z,84.72
2022-12-24T11:39:26.824Z,95.90
2022-12-24T11:41:55.033Z,88.28
2022-12-24T11:44:28.098Z,86.07
2022-12-24T11:46:59.732Z,108.35
2022-12-24T11:49:31.828Z,92.07
2022-12-24T11:52:03.913Z,97.30
2022-12-24T11:54:34.833Z,93.45
2022-12-24T11:57:02.617Z,96.30
2022-12-24T11:59:35.064Z,88.18
2022-12-24T12:02:21.082Z,88.53
2022-12-24T12:04:52.834Z,88.53
2022-12-24T12:07:23.496Z,90.50
2022-12-24T12:09:57.771Z,89.18
2022-12-24T12:12:26.877Z,94.50
2022-12-24T12:15:13.279Z,77.95
2022-12-24T12:17:44.840Z,79.90
2022-12-24T12:20:19.825Z,76.75
2022-12-24T12:22:56.554Z,78.35
2022-12-24T12:25:44.419Z,71.18
2022-12-24T12:28:21.698Z,71.10
2022-12-24T12:30:55.235Z,72.82
2022-12-24T12:33:29.221Z,67.07
2022-12-24T12:35:57.913Z,78.72
2022-12-24T12:38:26.716Z,75.50
2022-12-24T12:41:03.156Z,74.00
2022-12-24T12:43:42.213Z,91.45
2022-12-24T12:46:32.839Z,86.65
2022-12-24T12:49:06.373Z,79.20
2022-12-24T12:51:39.076Z,91.25
2022-12-24T12:54:17.301Z,85.28
2022-12-24T12:56:48.012Z,77.85
2022-12-24T12:59:26.740Z,95.57
2022-12-24T13:02:13.145Z,77.25
2022-12-24T13:04:59.135Z,140.35
2022-12-24T13:07:37.605Z,157.98
2022-12-24T13:10:11.597Z,77.15
2022-12-24T13:12:42.124Z,59.08
2022-12-24T13:15:09.606Z,51.65
2022-12-24T13:17:43.078Z,57.05
2022-12-24T13:20:25.972Z,154.55
2022-12-24T13:23:12.246Z,90.30
2022-12-24T13:25:43.983Z,99.88
2022-12-24T13:28:23.493Z,92.07
2022-12-24T13:30:54.289Z,70.63
2022-12-24T13:33:40.055Z,78.97
2022-12-24T13:36:08.727Z,60.47
2022-12-24T13:38:48.200Z,65.00
2022-12-24T13:41:41.893Z,133.65
2022-12-24T13:44:11.190Z,146.32
2022-12-24T13:46:56.923Z,111.80
2022-12-24T13:49:33.468Z,51.90
2022-12-24T13:52:07.067Z,53.50
2022-12-24T13:54:34.777Z,51.17
2022-12-24T13:57:02.503Z,85.95
2022-12-24T13:59:39.218Z,91.72
2022-12-24T14:02:13.203Z,53.92
2022-12-24T14:04:42.365Z,206.32
2022-12-24T14:07:11.481Z,115.75
2022-12-24T14:09:39.021Z,158.20
2022-12-24T14:12:06.398Z,106.05
2022-12-24T14:14:34.906Z,59.10
2022-12-24T14:17:03.583Z,37.05
2022-12-24T14:19:41.295Z,33.50
2022-12-24T14:22:23.998Z,33.00
2022-12-24T14:24:54.399Z,27.02
2022-12-24T14:27:42.121Z,25.83
2022-12-24T14:30:18.758Z,28.98
2022-12-24T14:32:46.895Z,32.42
2022-12-24T14:35:14.312Z,27.52
2022-12-24T14:37:43.300Z,33.42
2022-12-24T14:40:16.007Z,26.80
2022-12-24T14:43:02.020Z,27.77
2022-12-24T14:45:41.191Z,23.45
2022-12-24T14:48:20.193Z,24.15
2022-12-24T14:50:56.642Z,27.10
2022-12-24T14:53:29.389Z,25.35
2022-12-24T14:55:56.876Z,25.05
2022-12-24T14:58:28.701Z,31.10
2022-12-24T15:00:58.038Z,36.92
2022-12-24T15:03:26.947Z,42.63
2022-12-24T15:05:56.235Z,35.72
2022-12-24T15:08:47.737Z,31.92
2022-12-24T15:11:20.268Z,26.85
2022-12-24T15:13:53.847Z,24.75
2022-12-24T15:16:28.954Z,21.40
2022-12-24T15:18:57.976Z,20.55
2022-12-24T15:21:33.219Z,22.65
2022-12-24T15:26:32.112Z,20.48
2022-12-24T15:29:03.598Z,22.52
2022-12-24T15:31:32.089Z,20.40
2022-12-24T15:34:00.391Z,20.08
2022-12-24T15:36:31.619Z,21.27
2022-12-24T15:39:00.793Z,20.90
2022-12-24T15:41:30.513Z,20.08
2022-12-24T15:44:01.596Z,24.17
2022-12-24T15:46:30.838Z,20.83
2022-12-24T15:48:59.588Z,21.05
2022-12-24T15:51:28.076Z,22.67
2022-12-24T15:54:03.530Z,21.92
2022-12-24T15:56:44.527Z,24.30
2022-12-24T15:59:17.920Z,22.98
2022-12-24T16:01:46.277Z,26.02
2022-12-24T16:04:15.834Z,24.40
2022-12-24T16:07:01.963Z,25.80
2022-12-24T16:09:43.651Z,28.45
2022-12-24T16:12:16.788Z,29.90
2022-12-24T16:14:50.005Z,29.67
2022-12-24T16:17:22.856Z,29.65
2022-12-24T16:19:55.778Z,28.27
2022-12-24T16:22:33.113Z,28.45
2022-12-24T16:25:01.061Z,28.50
2022-12-24T16:27:28.510Z,28.25
2022-12-24T16:29:56.002Z,28.25
2022-12-24T16:32:23.407Z,28.38
2022-12-24T16:34:50.910Z,28.38
2022-12-24T16:37:18.302Z,26.95
2022-12-24T16:39:46.109Z,26.75
2022-12-24T16:42:32.217Z,27.45
2022-12-24T16:44:59.685Z,27.10
2022-12-24T16:47:33.635Z,27.45
2022-12-24T16:50:04.524Z,27.20
2022-12-24T16:52:33.778Z,25.30
2022-12-24T16:55:02.179Z,27.40
2022-12-24T16:57:29.592Z,30.17
2022-12-24T16:59:57.172Z,29.75
2022-12-24T17:02:25.607Z,29.50
2022-12-24T17:04:53.311Z,27.05
2022-12-24T17:07:22.149Z,26.85
2022-12-24T17:09:49.738Z,26.88
2022-12-24T17:12:17.229Z,27.75
2022-12-24T17:14:44.932Z,28.08
2022-12-24T17:17:19.793Z,29.40
2022-12-24T17:19:47.381Z,24.52
2022-12-24T17:22:14.740Z,29.38
2022-12-24T17:24:42.313Z,29.25
2022-12-24T17:27:09.748Z,28.45
2022-12-24T17:29:37.205Z,28.75
2022-12-24T17:32:04.957Z,27.65
2022-12-24T17:34:32.549Z,30.58
2022-12-24T17:36:59.941Z,35.13
2022-12-24T17:39:28.155Z,29.70
2022-12-24T17:41:55.718Z,31.88
2022-12-24T17:44:23.542Z,32.25
2022-12-24T17:46:51.074Z,29.33
2022-12-24T17:49:18.717Z,30.48
2022-12-24T17:51:46.893Z,31.42
2022-12-24T17:54:14.645Z,32.55
2022-12-24T17:56:42.107Z,32.63
2022-12-24T17:59:09.533Z,31.00
2022-12-24T18:01:36.979Z,32.53
2022-12-24T18:04:04.901Z,35.38
2022-12-24T18:06:32.484Z,36.35
2022-12-24T18:08:59.996Z,36.45
2022-12-24T18:11:32.989Z,38.47
2022-12-24T18:14:01.116Z,37.00
2022-12-24T18:16:31.592Z,34.22
2022-12-24T18:18:59.601Z,36.30
2022-12-24T18:21:28.533Z,35.33
2022-12-24T18:23:56.923Z,35.00
2022-12-24T18:26:25.370Z,34.70
2022-12-24T18:28:56.493Z,33.78
2022-12-24T18:31:25.046Z,35.05
2022-12-24T18:33:52.820Z,34.30
2022-12-24T18:36:20.576Z,32.40
2022-12-24T18:38:48.269Z,33.70
2022-12-24T18:41:17.296Z,33.05
2022-12-24T18:43:44.759Z,33.30
2022-12-24T18:46:13.638Z,31.90
2022-12-24T18:48:41.468Z,31.35
2022-12-24T18:51:09.368Z,35.17
2022-12-24T18:53:37.425Z,33.70
2022-12-24T18:56:09.599Z,34.70
2022-12-24T18:58:38.088Z,33.17
2022-12-24T19:01:12.508Z,35.42
2022-12-24T19:03:40.076Z,33.97
2022-12-24T19:06:08.037Z,32.92
2022-12-24T19:11:23.327Z,32.45
2022-12-24T19:13:53.165Z,33.85
2022-12-24T19:16:21.125Z,32.88
2022-12-24T19:18:48.868Z,34.67
2022-12-24T19:21:17.424Z,34.08
2022-12-24T19:23:45.735Z,33.30
2022-12-24T19:26:14.139Z,36.42
2022-12-24T19:28:41.594Z,35.88
2022-12-24T19:31:13.771Z,36.25
2022-12-24T19:33:43.564Z,36.05
2022-12-24T19:36:16.525Z,33.63
2022-12-24T19:38:44.567Z,37.15
2022-12-24T19:41:12.763Z,38.33
2022-12-24T19:43:43.408Z,35.13
2022-12-24T19:46:12.419Z,37.45
2022-12-24T19:48:40.062Z,37.08
2022-12-24T19:51:09.309Z,40.40
2022-12-24T19:53:37.421Z,36.88
2022-12-24T19:56:05.237Z,36.90
2022-12-24T19:58:32.794Z,35.63
2022-12-24T20:01:15.312Z,38.35
2022-12-24T20:03:43.960Z,37.45
2022-12-24T20:06:11.364Z,38.65
2022-12-24T20:08:39.427Z,35.67
2022-12-24T20:11:07.691Z,36.40
2022-12-24T20:13:35.608Z,33.42
2022-12-24T20:16:07.553Z,33.00
2022-12-24T20:18:35.071Z,35.55
2022-12-24T20:21:03.861Z,34.55
2022-12-24T20:23:31.684Z,37.03
2022-12-24T20:26:00.258Z,34.97
2022-12-24T20:28:27.878Z,33.85
2022-12-24T20:30:55.279Z,34.80
2022-12-24T20:33:23.081Z,33.72
2022-12-24T20:35:50.489Z,33.70
2022-12-24T20:38:17.968Z,35.20
2022-12-24T20:40:46.229Z,32.53
2022-12-24T20:43:13.788Z,36.55
2022-12-24T20:45:41.527Z,32.08
2022-12-24T20:48:09.044Z,28.98
2022-12-24T20:50:40.957Z,28.73
2022-12-24T20:53:08.458Z,29.88
2022-12-24T20:55:36.154Z,30.30
2022-12-24T20:58:03.731Z,28.92
2022-12-24T21:00:31.147Z,29.10
2022-12-24T21:02:59.109Z,31.23
2022-12-24T21:05:26.689Z,31.77
2022-12-24T21:07:54.143Z,27.90
2022-12-24T21:10:21.577Z,27.48
2022-12-24T21:12:49.161Z,26.48
2022-12-24T21:15:17.606Z,27.20
2022-12-24T21:17:45.167Z,28.67
2022-12-24T21:20:13.164Z,24.60
2022-12-24T21:22:40.654Z,23.15
2022-12-24T21:25:08.692Z,27.02
2022-12-24T21:27:36.685Z,23.92
2022-12-24T21:30:05.305Z,27.02
2022-12-24T21:32:32.779Z,24.15
2022-12-24T21:35:00.203Z,23.15
2022-12-24T21:37:27.774Z,24.35
2022-12-24T21:39:55.183Z,25.73
2022-12-24T21:42:22.633Z,20.55
2022-12-24T21:44:50.105Z,23.52
2022-12-24T21:47:17.581Z,21.73
2022-12-24T21:50:04.016Z,23.73
2022-12-24T21:52:31.458Z,23.77
2022-12-24T21:54:58.826Z,24.35
2022-12-24T21:57:44.836Z,18.92
2022-12-24T22:00:21.711Z,22.00
2022-12-24T22:02:59.617Z,22.85
2022-12-24T22:05:27.563Z,21.52
2022-12-24T22:08:14.208Z,21.98
2022-12-24T22:11:00.423Z,19.83
2022-12-24T22:13:29.590Z,21.60
2022-12-24T22:15:56.964Z,22.13
2022-12-24T22:18:25.581Z,20.35
2022-12-24T22:20:53.163Z,19.20
2022-12-24T22:23:20.728Z,20.83
2022-12-24T22:25:48.180Z,22.70
2022-12-24T22:28:15.745Z,19.80
2022-12-24T22:30:43.658Z,22.88
2022-12-24T22:33:11.193Z,20.25
2022-12-24T22:35:39.453Z,18.65
2022-12-24T22:38:07.289Z,18.45
2022-12-24T22:40:34.720Z,18.00
2022-12-24T22:43:02.137Z,18.80
2022-12-24T22:45:29.659Z,17.88
2022-12-24T22:47:57.117Z,19.52
2022-12-24T22:50:25.855Z,17.58
2022-12-24T22:52:54.006Z,19.73
2022-12-24T22:55:21.674Z,18.90
2022-12-24T22:57:49.205Z,21.88
2022-12-24T23:00:37.204Z,18.48
2022-12-24T23:03:05.530Z,18.02
2022-12-24T23:05:33.048Z,19.02
2022-12-24T23:08:00.696Z,20.38
2022-12-24T23:10:28.095Z,21.13
2022-12-24T23:13:15.385Z,29.17
2022-12-24T23:15:43.108Z,34.78
2022-12-24T23:18:10.847Z,51.05
2022-12-24T23:20:39.456Z,71.97
2022-12-24T23:23:06.886Z,81.90
2022-12-24T23:25:34.862Z,90.93
2022-12-24T23:28:02.360Z,97.63
2022-12-24T23:30:29.885Z,96.43
2022-12-24T23:32:57.390Z,78.88
2022-12-24T23:35:24.960Z,77.20
2022-12-24T23:37:52.355Z,88.72
2022-12-24T23:40:19.902Z,68.30
2022-12-24T23:42:47.363Z,57.00
2022-12-24T23:45:15.018Z,77.53
2022-12-24T23:47:42.446Z,51.75
2022-12-24T23:50:11.593Z,52.30
2022-12-24T23:52:39.011Z,45.47
2022-12-24T23:55:06.760Z,40.05
2022-12-24T23:57:34.147Z,38.35
